Portada
METAR-TAF:

METAR-TAF

Aeroports :

Gibraltar, Gibraltar

latitud: 36-09N, longitud: 005-21W, altitud: 5 m

Observació

L'informe es va fer fa 15 minuts, a les 10:50 UTC
Vent 4 kt del Est/Nord-Est
Temperatura 17°C
Humitat 77%
Pressió 1024 hPa
Visibilitat 10 km o més
Escasses núvols a una alçada de 2200 ft

METAR: LXGB 071050Z 06004KT 9999 FEW022 17/13 Q1024 NOSIG RMK BLU BLU

Hora: 12:05 (11:05 UTC)

Pronòstic

L'informe es va fer fa 3 hores i 3 minuts, a les 08:02 UTC
Pronòstic vàlid del 07 a les 09 UTC al 07 a les 18 UTC
Vent 10 kt del Est
Visibilitat 10 km o més
Escasses núvols a una alçada de 1400 ft

TAF: LXGB 070802Z 0709/0718 09010KT 9999 FEW014

Observacions i pronòstics meteorològics de més de 4000 aeroports (METAR i TAF).

Les estacions disponibles són els punts grocs i vermells al mapa.

Posi el ratolí al punt desitjat per veure el nom de l'estació.

Feu clic per veure les observacions i els pronòstics meteorològics.

Per canviar el mapa: feu clic els botons verds amb una creu de color negre per apropar; al botó verd amb un guió per allunyar la imatge; o en les fletxes verdes per a mapes adjacents.


METAR-TAF: